createdAt,value
2022-10-08T00:01:25.904Z,100045.06
2022-10-08T00:03:55.584Z,100032.50
2022-10-08T00:06:25.410Z,100026.13
2022-10-08T00:08:56.657Z,100026.84
2022-10-08T00:11:27.644Z,100022.47
2022-10-08T00:13:56.547Z,100019.91
2022-10-08T00:16:26.875Z,100027.13
2022-10-08T00:18:56.327Z,100024.44
2022-10-08T00:21:26.151Z,100021.75
2022-10-08T00:23:55.737Z,100031.50
2022-10-08T00:26:25.911Z,100025.16
2022-10-08T00:28:56.229Z,100026.97
2022-10-08T00:31:26.848Z,100033.19
2022-10-08T00:33:56.587Z,100032.22
2022-10-08T00:36:26.350Z,100030.50
2022-10-08T00:38:58.101Z,100024.88
2022-10-08T00:41:28.337Z,100017.38
2022-10-08T00:43:58.014Z,100028.41
2022-10-08T00:46:30.248Z,100023.16
2022-10-08T00:49:02.918Z,100018.81
2022-10-08T00:51:33.126Z,100022.47
2022-10-08T00:54:03.977Z,100013.44
2022-10-08T00:56:34.585Z,100008.06
2022-10-08T00:59:03.008Z,100009.16
2022-10-08T01:01:30.900Z,100005.50
2022-10-08T01:04:00.185Z,100009.03
2022-10-08T01:06:31.001Z,99999.28
2022-10-08T01:09:06.460Z,100003.66
2022-10-08T01:11:49.052Z,100001.97
2022-10-08T01:14:30.056Z,100002.97
2022-10-08T01:17:07.310Z,99998.44
2022-10-08T01:19:55.961Z,100006.34
2022-10-08T01:22:41.366Z,99991.38
2022-10-08T01:25:34.639Z,99997.59
2022-10-08T01:28:21.855Z,99984.31
2022-10-08T01:30:56.341Z,99979.94
2022-10-08T01:33:28.073Z,99995.91
2022-10-08T01:35:59.607Z,99985.31
2022-10-08T01:38:31.569Z,99979.78
2022-10-08T01:41:03.784Z,99974.41
2022-10-08T01:43:36.792Z,99968.19
2022-10-08T01:46:09.516Z,99980.78
2022-10-08T01:48:41.129Z,99972.72
2022-10-08T01:51:15.113Z,99969.91
2022-10-08T01:53:46.988Z,99962.84
2022-10-08T01:56:20.925Z,99958.88
2022-10-08T01:58:54.447Z,99969.22
2022-10-08T02:01:28.836Z,99967.22
2022-10-08T02:04:14.318Z,99965.50
2022-10-08T02:06:46.052Z,99962.84
2022-10-08T02:09:14.054Z,99970.88
2022-10-08T02:11:41.953Z,99970.75
2022-10-08T02:14:11.872Z,99975.97
2022-10-08T02:16:52.335Z,99966.38
2022-10-08T02:19:29.819Z,99967.06
2022-10-08T02:22:02.556Z,99971.56
2022-10-08T02:24:37.829Z,99964.25
2022-10-08T02:27:09.366Z,99967.22
2022-10-08T02:29:44.279Z,99962.56
2022-10-08T02:32:18.630Z,99957.19
2022-10-08T02:34:51.790Z,99947.41
2022-10-08T02:37:25.503Z,99940.41
2022-10-08T02:40:00.682Z,99936.00
2022-10-08T02:42:32.133Z,99971.75
2022-10-08T02:45:07.534Z,99964.53
2022-10-08T02:47:38.761Z,99962.84
2022-10-08T02:50:12.325Z,99938.97
2022-10-08T02:52:44.407Z,99966.53
2022-10-08T02:55:20.182Z,99967.50
2022-10-08T02:57:55.774Z,99971.31
2022-10-08T03:00:25.897Z,99969.34
2022-10-08T03:02:59.462Z,99972.88
2022-10-08T03:05:29.025Z,99973.03
2022-10-08T03:07:58.486Z,99962.56
2022-10-08T03:10:30.486Z,99961.44
2022-10-08T03:13:01.939Z,99968.63
2022-10-08T03:15:33.270Z,99960.59
2022-10-08T03:18:03.513Z,99966.09
2022-10-08T03:20:33.052Z,99959.88
2022-10-08T03:23:02.733Z,99964.41
2022-10-08T03:25:30.585Z,99943.22
2022-10-08T03:27:58.511Z,99927.81
2022-10-08T03:30:26.425Z,99931.22
2022-10-08T03:32:55.749Z,99932.91
2022-10-08T03:35:23.596Z,99919.63
2022-10-08T03:37:53.113Z,99950.69
2022-10-08T03:40:21.294Z,99958.88
2022-10-08T03:42:49.577Z,99947.31
2022-10-08T03:45:17.631Z,99946.31
2022-10-08T03:47:45.513Z,99937.41
2022-10-08T03:50:14.788Z,99941.81
2022-10-08T03:52:42.692Z,99942.78
2022-10-08T03:55:10.936Z,99927.53
2022-10-08T03:57:38.797Z,99929.22
2022-10-08T04:00:07.725Z,99927.41
2022-10-08T04:02:35.723Z,99939.97
2022-10-08T04:05:03.633Z,99934.59
2022-10-08T04:07:32.945Z,99932.91
2022-10-08T04:10:00.798Z,99925.00
2022-10-08T04:12:30.033Z,99934.59
2022-10-08T04:14:57.897Z,99939.13
2022-10-08T04:17:25.825Z,99940.94
2022-10-08T04:19:53.722Z,99939.97
2022-10-08T04:22:21.623Z,99936.28
2022-10-08T04:24:50.866Z,99924.72
2022-10-08T04:27:18.750Z,99928.38
2022-10-08T04:29:46.606Z,99925.69
2022-10-08T04:32:14.461Z,99923.00
2022-10-08T04:34:42.310Z,99921.31
2022-10-08T04:37:10.181Z,99929.34
2022-10-08T04:39:38.012Z,99921.31
2022-10-08T04:42:07.365Z,99924.16
2022-10-08T04:44:35.258Z,99922.31
2022-10-08T04:47:03.125Z,99927.81
2022-10-08T04:49:30.986Z,99929.50
2022-10-08T04:51:58.856Z,99934.88
2022-10-08T04:54:27.197Z,99933.06
2022-10-08T04:56:55.240Z,99928.81
2022-10-08T04:59:24.517Z,99958.34
2022-10-08T05:01:52.991Z,99959.19
2022-10-08T05:04:20.942Z,99957.75
2022-10-08T05:06:48.861Z,99945.31
2022-10-08T05:09:16.925Z,99933.06
2022-10-08T05:11:44.803Z,99944.06
2022-10-08T05:14:12.701Z,99938.84
2022-10-08T05:16:41.932Z,99945.03
2022-10-08T05:19:10.149Z,99954.09
2022-10-08T05:21:38.063Z,99956.78
2022-10-08T05:24:08.177Z,99944.34
2022-10-08T05:26:57.549Z,99941.66
2022-10-08T05:29:26.481Z,99938.28
2022-10-08T05:31:55.755Z,99943.66
2022-10-08T05:34:24.056Z,99955.09
2022-10-08T05:36:51.925Z,99954.09
2022-10-08T05:39:19.814Z,99962.16
2022-10-08T05:41:47.694Z,99951.53
2022-10-08T05:44:15.604Z,99970.22
2022-10-08T05:46:43.585Z,99984.47
2022-10-08T05:49:18.837Z,99982.78
2022-10-08T05:51:46.913Z,99975.69
2022-10-08T05:54:15.174Z,99980.09
2022-10-08T05:56:43.446Z,99981.91
2022-10-08T05:59:16.949Z,99978.25
2022-10-08T06:01:45.249Z,99961.31
2022-10-08T06:04:15.254Z,99988.13
2022-10-08T06:06:44.476Z,99982.06
2022-10-08T06:09:14.379Z,99992.53
2022-10-08T06:11:43.556Z,100002.41
2022-10-08T06:14:12.742Z,100003.25
2022-10-08T06:16:41.357Z,100006.06
2022-10-08T06:19:10.160Z,99998.31
2022-10-08T06:21:39.440Z,100009.72
2022-10-08T06:24:09.693Z,100007.47
2022-10-08T06:26:38.857Z,100008.88
2022-10-08T06:29:07.711Z,99996.19
2022-10-08T06:31:36.392Z,100024.44
2022-10-08T06:34:05.182Z,100027.81
2022-10-08T06:36:34.643Z,100038.56
2022-10-08T06:39:07.161Z,100045.63
2022-10-08T06:41:35.795Z,100050.28
2022-10-08T06:44:05.175Z,100046.75
2022-10-08T06:46:33.748Z,100040.53
2022-10-08T06:49:02.664Z,100037.00
2022-10-08T06:51:31.278Z,100042.38
2022-10-08T06:54:06.983Z,100048.59
2022-10-08T06:56:38.567Z,100045.91
2022-10-08T06:59:07.322Z,100059.47
2022-10-08T07:01:36.147Z,100055.78
2022-10-08T07:04:05.662Z,100053.25
2022-10-08T07:06:33.846Z,100046.44
2022-10-08T07:09:03.141Z,100056.78
2022-10-08T07:11:32.397Z,100063.84
2022-10-08T07:14:01.917Z,100050.56
2022-10-08T07:16:29.898Z,100053.09
2022-10-08T07:18:58.865Z,100058.34
2022-10-08T07:21:27.508Z,100060.28
2022-10-08T07:23:55.679Z,100064.69
2022-10-08T07:26:24.874Z,100066.50
2022-10-08T07:28:55.372Z,100066.41
2022-10-08T07:31:28.076Z,100068.22
2022-10-08T07:33:56.355Z,100065.53
2022-10-08T07:36:25.783Z,100060.03
2022-10-08T07:38:57.509Z,100061.72
2022-10-08T07:41:26.177Z,100056.47
2022-10-08T07:43:55.384Z,100059.16
2022-10-08T07:46:24.641Z,100060.72
2022-10-08T07:48:54.749Z,100062.59
2022-10-08T07:51:22.637Z,100061.72
2022-10-08T07:53:50.864Z,100051.84
2022-10-08T07:56:20.733Z,100056.22
2022-10-08T07:58:49.625Z,100060.59
2022-10-08T08:01:21.205Z,100065.13
2022-10-08T08:03:55.607Z,100060.59
2022-10-08T08:06:25.190Z,100063.41
2022-10-08T08:08:53.569Z,100061.72
2022-10-08T08:11:23.535Z,100068.78
2022-10-08T08:13:52.192Z,100065.38
2022-10-08T08:16:21.683Z,100061.84
2022-10-08T08:18:51.397Z,100063.72
2022-10-08T08:21:22.649Z,100066.50
2022-10-08T08:23:53.381Z,100071.88
2022-10-08T08:26:25.076Z,100071.03
2022-10-08T08:28:54.314Z,100071.03
2022-10-08T08:31:25.224Z,100053.69
2022-10-08T08:33:54.967Z,100054.09
2022-10-08T08:36:28.777Z,100059.75
2022-10-08T08:38:57.861Z,100065.81
2022-10-08T08:41:39.513Z,100072.75
2022-10-08T08:44:12.419Z,100072.16
2022-10-08T08:46:44.580Z,100065.66
2022-10-08T08:49:20.963Z,100080.94
2022-10-08T08:51:50.353Z,100079.50
2022-10-08T08:54:18.298Z,100089.13
2022-10-08T08:56:46.361Z,100095.19
2022-10-08T08:59:25.482Z,100084.59
2022-10-08T09:01:57.251Z,100076.69
2022-10-08T09:04:32.978Z,100075.28
2022-10-08T09:07:06.305Z,100082.63
2022-10-08T09:09:41.039Z,100075.28
2022-10-08T09:12:20.786Z,100070.47
2022-10-08T09:14:54.467Z,100079.06
2022-10-08T09:17:29.307Z,100084.59
2022-10-08T09:19:57.409Z,100082.94
2022-10-08T09:22:29.621Z,100082.78
2022-10-08T09:25:01.245Z,100085.34
2022-10-08T09:27:44.931Z,100081.66
2022-10-08T09:30:31.449Z,100082.66
2022-10-08T09:33:01.519Z,100090.69
2022-10-08T09:35:29.472Z,100087.16
2022-10-08T09:38:02.170Z,100096.78
2022-10-08T09:40:33.578Z,100096.06
2022-10-08T09:43:11.792Z,100044.31
2022-10-08T09:45:41.534Z,100097.63
2022-10-08T09:48:21.564Z,100105.53
2022-10-08T09:50:56.293Z,100098.44
2022-10-08T09:53:29.515Z,100095.06
2022-10-08T09:56:00.515Z,100092.66
2022-10-08T09:58:32.298Z,100108.22
2022-10-08T10:01:06.820Z,100097.47
2022-10-08T10:03:36.441Z,100097.63
2022-10-08T10:06:04.786Z,100111.03
2022-10-08T10:08:51.592Z,100112.72
2022-10-08T10:11:26.789Z,100102.13
2022-10-08T10:13:57.234Z,100113.72
2022-10-08T10:16:28.156Z,100111.88
2022-10-08T10:19:00.603Z,100111.88
2022-10-08T10:21:36.900Z,100109.19
2022-10-08T10:24:29.173Z,100111.03
2022-10-08T10:27:00.892Z,100121.03
2022-10-08T10:29:38.721Z,100112.88
2022-10-08T10:32:14.554Z,100118.25
2022-10-08T10:34:46.854Z,100120.94
2022-10-08T10:37:20.129Z,100113.00
2022-10-08T10:39:53.782Z,100111.88
2022-10-08T10:42:31.016Z,100112.88
2022-10-08T10:45:04.473Z,100114.84
2022-10-08T10:47:33.349Z,100095.59
2022-10-08T10:50:02.822Z,100117.53
2022-10-08T10:52:45.599Z,100121.91
2022-10-08T10:55:23.576Z,100132.63
2022-10-08T10:58:22.519Z,100119.22
2022-10-08T11:00:58.385Z,100116.53
2022-10-08T11:03:36.249Z,100122.06
2022-10-08T11:06:22.569Z,100120.06
2022-10-08T11:08:57.145Z,100123.72
2022-10-08T11:11:33.462Z,100106.81
2022-10-08T11:14:36.821Z,100107.50
2022-10-08T11:17:18.669Z,100110.31
2022-10-08T11:19:57.443Z,100115.69
2022-10-08T11:22:34.181Z,100113.72
2022-10-08T11:25:20.833Z,100100.31
2022-10-08T11:28:02.233Z,100100.16
2022-10-08T11:30:45.352Z,100099.19
2022-10-08T11:33:16.494Z,100096.63
2022-10-08T11:35:51.099Z,100110.63
2022-10-08T11:38:26.115Z,100101.56
2022-10-08T11:41:00.262Z,100103.97
2022-10-08T11:43:38.314Z,100102.00
2022-10-08T11:46:29.550Z,100097.19
2022-10-08T11:52:14.936Z,100102.97
2022-10-08T11:54:43.032Z,100091.28
2022-10-08T11:57:20.296Z,100088.16
2022-10-08T11:59:56.858Z,100084.22
2022-10-08T12:02:28.086Z,100093.94
2022-10-08T12:04:58.488Z,100086.03
2022-10-08T12:07:31.788Z,100091.84
2022-10-08T12:10:30.051Z,100094.53
2022-10-08T12:13:29.741Z,100090.97
2022-10-08T12:16:07.961Z,100089.28
2022-10-08T12:18:54.202Z,100092.69
2022-10-08T12:21:52.395Z,100101.72
2022-10-08T12:24:53.840Z,100096.34
2022-10-08T12:27:23.836Z,100097.47
2022-10-08T12:29:55.713Z,100088.13
2022-10-08T12:32:26.264Z,100090.81
2022-10-08T12:34:54.396Z,100093.38
2022-10-08T12:37:46.626Z,100091.16
2022-10-08T12:40:25.061Z,100096.69
2022-10-08T12:43:09.106Z,100102.88
2022-10-08T12:45:49.064Z,100100.19
2022-10-08T12:48:32.068Z,100098.34
2022-10-08T12:51:10.284Z,100098.75
2022-10-08T12:53:38.542Z,100105.56
2022-10-08T12:56:06.514Z,100094.38
2022-10-08T12:58:37.709Z,100100.91
2022-10-08T13:01:07.023Z,100099.22
2022-10-08T13:03:36.408Z,100108.81
2022-10-08T13:06:17.098Z,100106.13
2022-10-08T13:08:45.064Z,100108.97
2022-10-08T13:11:15.274Z,100105.56
2022-10-08T13:13:45.981Z,100107.84
2022-10-08T13:16:16.113Z,100114.03
2022-10-08T13:18:47.356Z,100113.06
2022-10-08T13:21:36.722Z,100103.16
2022-10-08T13:24:20.989Z,100105.00
2022-10-08T13:26:50.786Z,100099.06
2022-10-08T13:29:30.224Z,100110.38
2022-10-08T13:32:00.268Z,100116.59
2022-10-08T13:34:31.976Z,100119.41
2022-10-08T13:37:02.954Z,100117.56
2022-10-08T13:39:34.323Z,100117.56
2022-10-08T13:42:08.153Z,100114.91
2022-10-08T13:44:38.236Z,100116.59
2022-10-08T13:47:06.396Z,100115.75
2022-10-08T13:49:36.140Z,100127.34
2022-10-08T13:52:04.248Z,100129.19
2022-10-08T13:54:34.530Z,100128.19
2022-10-08T13:57:02.857Z,100132.84
2022-10-08T13:59:31.135Z,100123.09
2022-10-08T14:01:59.106Z,100119.72
2022-10-08T14:04:27.014Z,100130.47
2022-10-08T14:06:58.847Z,100131.44
2022-10-08T14:09:30.283Z,100136.81
2022-10-08T14:12:01.338Z,100136.97
2022-10-08T14:14:29.646Z,100145.97
2022-10-08T14:16:57.581Z,100140.88
2022-10-08T14:19:25.562Z,100149.63
2022-10-08T14:21:57.748Z,100148.66
2022-10-08T14:24:25.665Z,100159.53
2022-10-08T14:26:53.534Z,100160.53
2022-10-08T14:29:21.561Z,100157.16
2022-10-08T14:31:49.482Z,100162.63
2022-10-08T14:34:17.600Z,100170.84
2022-10-08T14:36:45.571Z,100162.09
2022-10-08T14:39:14.816Z,100170.97
2022-10-08T14:41:44.302Z,100167.72
2022-10-08T14:44:13.325Z,100171.13
2022-10-08T14:46:41.202Z,100179.19
2022-10-08T14:49:09.085Z,100179.31
2022-10-08T14:51:38.760Z,100174.63
2022-10-08T14:54:07.310Z,100180.72
2022-10-08T14:56:43.912Z,100179.59
2022-10-08T14:59:12.323Z,100191.47
2022-10-08T15:01:40.838Z,100186.09
2022-10-08T15:04:09.024Z,100190.72
2022-10-08T15:06:38.133Z,100197.81
2022-10-08T15:09:06.343Z,100203.34
2022-10-08T15:11:34.228Z,100194.44
2022-10-08T15:14:03.530Z,100203.34
2022-10-08T15:16:31.542Z,100195.56
2022-10-08T15:18:59.558Z,100196.53
2022-10-08T15:21:27.549Z,100171.59
2022-10-08T15:23:56.981Z,100197.66
2022-10-08T15:26:24.973Z,100200.75
2022-10-08T15:28:53.695Z,100205.00
2022-10-08T15:31:25.128Z,100198.66
2022-10-08T15:34:01.890Z,100213.31
2022-10-08T15:36:31.511Z,100214.28
2022-10-08T15:39:01.145Z,100203.72
2022-10-08T15:41:30.422Z,100210.91
2022-10-08T15:44:09.398Z,100214.44
2022-10-08T15:46:39.018Z,100215.56
2022-10-08T15:49:06.952Z,100224.75
2022-10-08T15:51:34.985Z,100217.66
2022-10-08T15:54:03.113Z,100227.59
2022-10-08T15:56:31.592Z,100212.44
2022-10-08T15:59:00.125Z,100229.78
2022-10-08T16:01:29.603Z,100231.38
2022-10-08T16:04:00.172Z,100239.44
2022-10-08T16:06:29.847Z,100252.97
2022-10-08T16:09:03.204Z,100238.81
2022-10-08T16:11:32.746Z,100268.50
2022-10-08T16:14:02.537Z,100262.56
2022-10-08T16:16:31.085Z,100264.25
2022-10-08T16:19:02.193Z,100239.44
2022-10-08T16:21:31.906Z,100266.22
2022-10-08T16:24:00.762Z,100258.72
2022-10-08T16:26:31.754Z,100273.56
2022-10-08T16:29:01.140Z,100273.72
2022-10-08T16:31:30.467Z,100279.06
2022-10-08T16:34:01.486Z,100292.50
2022-10-08T16:36:31.500Z,100280.91
2022-10-08T16:38:59.646Z,100292.75
2022-10-08T16:41:29.791Z,100291.75
2022-10-08T16:44:00.029Z,100284.81
2022-10-08T16:46:30.484Z,100282.28
2022-10-08T16:49:01.744Z,100283.13
2022-10-08T16:51:32.105Z,100295.81
2022-10-08T16:54:01.918Z,100294.13
2022-10-08T16:56:31.398Z,100288.16
2022-10-08T16:59:01.273Z,100295.97
2022-10-08T17:01:29.703Z,100293.44
2022-10-08T17:03:58.329Z,100306.84
2022-10-08T17:06:29.219Z,100305.13
2022-10-08T17:08:58.283Z,100294.91
2022-10-08T17:11:26.620Z,100309.63
2022-10-08T17:13:56.683Z,100316.81
2022-10-08T17:16:27.770Z,100319.50
2022-10-08T17:18:57.812Z,100315.25
2022-10-08T17:21:27.629Z,100330.38
2022-10-08T17:23:58.369Z,100324.31
2022-10-08T17:26:28.653Z,100330.53
2022-10-08T17:28:57.257Z,100320.25
2022-10-08T17:31:27.300Z,100345.88
2022-10-08T17:33:55.176Z,100349.66
2022-10-08T17:36:25.885Z,100348.56
2022-10-08T17:38:57.307Z,100348.22
2022-10-08T17:41:27.346Z,100357.84
2022-10-08T17:43:57.042Z,100357.84
2022-10-08T17:46:26.517Z,100352.75
2022-10-08T17:48:55.075Z,100360.31
2022-10-08T17:51:25.164Z,100362.03
2022-10-08T17:53:55.960Z,100371.50
2022-10-08T17:56:24.680Z,100353.34
2022-10-08T17:58:52.655Z,100385.19
2022-10-08T18:01:22.325Z,100378.00
2022-10-08T18:03:52.261Z,100383.34
2022-10-08T18:06:20.926Z,100392.38
2022-10-08T18:08:49.060Z,100388.88
2022-10-08T18:11:18.317Z,100402.28
2022-10-08T18:13:46.329Z,100392.50
2022-10-08T18:16:15.802Z,100392.50
2022-10-08T18:18:45.565Z,100397.88
2022-10-08T18:21:14.668Z,100386.78
2022-10-08T18:23:43.114Z,100412.53
2022-10-08T18:26:16.052Z,100404.34
2022-10-08T18:28:45.629Z,100415.78
2022-10-08T18:31:15.029Z,100417.63
2022-10-08T18:33:44.665Z,100413.13
2022-10-08T18:36:14.414Z,100419.47
2022-10-08T18:38:43.953Z,100429.22
2022-10-08T18:41:13.772Z,100434.72
2022-10-08T18:43:41.773Z,100443.72
2022-10-08T18:46:11.704Z,100441.03
2022-10-08T18:48:39.785Z,100437.41
2022-10-08T18:51:09.436Z,100443.63
2022-10-08T18:53:39.982Z,100448.97
2022-10-08T18:56:09.858Z,100446.28
2022-10-08T18:58:38.137Z,100420.41
2022-10-08T19:01:07.227Z,100461.53
2022-10-08T19:03:36.567Z,100465.19
2022-10-08T19:06:08.097Z,100463.22
2022-10-08T19:08:36.226Z,100474.94
2022-10-08T19:11:10.758Z,100479.44
2022-10-08T19:13:38.772Z,100483.34
2022-10-08T19:16:13.251Z,100482.38
2022-10-08T19:18:44.291Z,100492.25
2022-10-08T19:21:14.219Z,100462.31
2022-10-08T19:23:42.255Z,100489.72
2022-10-08T19:26:10.458Z,100501.31
2022-10-08T19:28:39.814Z,100508.50
2022-10-08T19:31:15.818Z,100503.97
2022-10-08T19:33:49.831Z,100504.47
2022-10-08T19:36:18.596Z,100515.81
2022-10-08T19:38:52.428Z,100522.28
2022-10-08T19:41:21.066Z,100523.00
2022-10-08T19:43:51.755Z,100532.16
2022-10-08T19:46:20.694Z,100534.69
2022-10-08T19:48:51.168Z,100505.00
2022-10-08T19:51:19.998Z,100542.03
2022-10-08T19:53:51.518Z,100524.13
2022-10-08T19:56:21.845Z,100524.25
2022-10-08T19:58:53.275Z,100545.81
2022-10-08T20:01:23.550Z,100556.41
2022-10-08T20:03:55.976Z,100554.72
2022-10-08T20:06:26.092Z,100554.00
2022-10-08T20:08:54.670Z,100569.06
2022-10-08T20:11:22.939Z,100562.03
2022-10-08T20:13:53.492Z,100555.19
2022-10-08T20:16:23.268Z,100563.97
2022-10-08T20:18:52.655Z,100562.28
2022-10-08T20:21:23.038Z,100572.75
2022-10-08T20:23:51.067Z,100548.41
2022-10-08T20:26:20.825Z,100569.84
2022-10-08T20:28:50.737Z,100586.28
2022-10-08T20:31:20.792Z,100590.06
2022-10-08T20:33:49.556Z,100593.47
2022-10-08T20:36:18.397Z,100599.69
2022-10-08T20:38:47.706Z,100594.22
2022-10-08T20:41:15.590Z,100599.69
2022-10-08T20:43:43.848Z,100598.00
2022-10-08T20:46:13.622Z,100603.34
2022-10-08T20:48:44.435Z,100605.19
2022-10-08T20:51:14.985Z,100612.97
2022-10-08T20:53:49.269Z,100614.81
2022-10-08T20:56:18.322Z,100619.44
2022-10-08T20:58:46.926Z,100616.75
2022-10-08T21:01:17.810Z,100614.19
2022-10-08T21:03:46.909Z,100608.22
2022-10-08T21:06:16.949Z,100617.84
2022-10-08T21:08:46.549Z,100610.06
2022-10-08T21:11:17.652Z,100626.63
2022-10-08T21:13:46.125Z,100625.88
2022-10-08T21:16:16.272Z,100633.91
2022-10-08T21:18:46.125Z,100629.56
2022-10-08T21:21:15.768Z,100635.03
2022-10-08T21:23:43.931Z,100625.53
2022-10-08T21:26:16.389Z,100639.56
2022-10-08T21:28:48.564Z,100631.13
2022-10-08T21:31:17.675Z,100636.97
2022-10-08T21:33:47.142Z,100646.84
2022-10-08T21:36:17.242Z,100653.06
2022-10-08T21:38:45.702Z,100632.84
2022-10-08T21:41:17.040Z,100655.75
2022-10-08T21:43:46.768Z,100655.88
2022-10-08T21:46:16.446Z,100659.53
2022-10-08T21:48:44.981Z,100658.66
2022-10-08T21:51:15.185Z,100663.31
2022-10-08T21:53:46.657Z,100671.09
2022-10-08T21:56:19.373Z,100666.84
2022-10-08T21:58:49.042Z,100672.06
2022-10-08T22:01:23.140Z,100665.97
2022-10-08T22:03:55.391Z,100668.44
2022-10-08T22:06:23.778Z,100648.44
2022-10-08T22:08:52.452Z,100673.06
2022-10-08T22:11:22.030Z,100678.91
2022-10-08T22:13:50.501Z,100680.50
2022-10-08T22:16:21.077Z,100679.00
2022-10-08T22:18:49.464Z,100678.53
2022-10-08T22:21:19.291Z,100690.13
2022-10-08T22:23:47.788Z,100693.78
2022-10-08T22:26:17.611Z,100687.22
2022-10-08T22:28:47.334Z,100661.00
2022-10-08T22:31:17.067Z,100697.06
2022-10-08T22:33:45.025Z,100695.25
2022-10-08T22:36:15.483Z,100693.31
2022-10-08T22:38:44.644Z,100697.81
2022-10-08T22:41:14.770Z,100706.72
2022-10-08T22:43:43.003Z,100707.66
2022-10-08T22:46:16.973Z,100716.34
2022-10-08T22:48:45.842Z,100711.09
2022-10-08T22:51:15.640Z,100718.16
2022-10-08T22:53:43.700Z,100722.66
2022-10-08T22:56:13.678Z,100719.88
2022-10-08T22:58:41.622Z,100715.47
2022-10-08T23:01:11.592Z,100717.06
2022-10-08T23:03:41.507Z,100726.09
2022-10-08T23:06:14.613Z,100701.84
2022-10-08T23:08:42.979Z,100739.75
2022-10-08T23:11:11.516Z,100741.44
2022-10-08T23:13:39.662Z,100739.75
2022-10-08T23:16:09.807Z,100742.44
2022-10-08T23:18:41.217Z,100746.81
2022-10-08T23:21:12.330Z,100739.84
2022-10-08T23:23:40.987Z,100752.16
2022-10-08T23:26:10.055Z,100725.34
2022-10-08T23:28:39.415Z,100748.53
2022-10-08T23:31:10.216Z,100756.56
2022-10-08T23:33:42.081Z,100766.34
2022-10-08T23:36:11.058Z,100766.34
2022-10-08T23:38:39.182Z,100771.56
2022-10-08T23:41:09.384Z,100745.09
2022-10-08T23:43:39.189Z,100770.69
2022-10-08T23:46:08.538Z,100773.28
2022-10-08T23:48:36.783Z,100778.50
2022-10-08T23:51:07.150Z,100778.50
2022-10-08T23:53:36.090Z,100783.16
2022-10-08T23:56:04.476Z,100778.75
2022-10-08T23:58:32.909Z,100778.03
